METAR AND TAF INFORMATION

METAR FOR EDDB
ADDS - METARS form results

(0909 UTC 04 February 2023)
Data provider http://aviationweather.gov/metar/data/
 
METAR text: EDDB 040850Z AUTO 33009KT 9999 FEW011 02/M00 Q1035 TEMPO BKN012
Conditions at: EDDB (BERLIN/BRANDERNB, DE) observed 0850 UTC 04 February 2023
Temperature: 2.0°C (36°F)
Dewpoint: 0.0°C (32°F) [RH = 87%]
Pressure (altimeter): 30.56 inches Hg (1035.0 mb)
Winds: from the NNW (330 degrees) at 10 MPH (9 knots; 4.6 m/s)
Visibility: 6 or more miles (10+ km)
Ceiling: at least 12,000 feet AGL
Clouds: few clouds at 1100 feet AGL
Weather: no significant weather observed at this time

METAR text: EDDB 040820Z AUTO 33007KT CAVOK 01/M00 Q1034 NOSIG
Conditions at: EDDB (BERLIN/BRANDERNB, DE) observed 0820 UTC 04 February 2023
Temperature: 1.0°C (34°F)
Dewpoint: 0.0°C (32°F) [RH = 93%]
Pressure (altimeter): 30.53 inches Hg (1034.0 mb)
Winds: from the NNW (330 degrees) at 8 MPH (7 knots; 3.6 m/s)
Visibility: 6 or more miles (10+ km)
Ceiling: ceiling and visibility are OK
Clouds: unknown
Weather: no significant weather observed at this time

Forecast for: EDDB (BERLIN/BRANDERNB, DE)
Text: TAF EDDB 040500Z 0406/0506 35009KT 9999 FEW025
Forecast period: 0600 to 1700 UTC 04 February 2023
Forecast type: FROM: standard forecast or significant change
Winds: from the N (350 degrees) at 10 MPH (9 knots; 4.6 m/s)
Visibility: 6 or more miles (10+ km)
Ceiling: at least 12,000 feet AGL
Clouds: few clouds at 2500 feet AGL
Weather: no significant weather forecast for this period
Text: BECMG 0417/0419 VRB03KT
Forecast period: 1700 UTC 04 February 2023 to 0600 UTC 05 February 2023
Forecast type: BECOMING: Conditions expected to become as follows by 1900 UTC 04 February 2023
Winds: variable direction winds at 3 MPH (3 knots; 1.5 m/s)
Visibility: 6 or more miles (10+ km)
Ceiling: at least 12,000 feet AGL
Clouds: few clouds at 2500 feet AGL
Weather: no significant weather forecast for this period

 

AIRPORT MAP

 

RUNWAY INFORMATION

Runway 07L Runway length 8891 ft Runway width 148 ft
Runway elevation 148 ft Runway displaced threshold 0 ft Runway heading 69
Runway 25R Runway length 8891 ft Runway width 148 ft
Runway elevation 145 ft Runway displaced threshold 0 ft Runway heading 249
Runway 07R Runway length 9843 ft Runway width 148 ft
Runway elevation 146 ft Runway displaced threshold 0 ft Runway heading 69
Runway 25L Runway length 9843 ft Runway width 148 ft
Runway elevation 155 ft Runway displaced threshold 0 ft Runway heading 249

 

AIRPORT FREQUENCIES

Type AFIS Name BERLIN INF Frequency 132.65 MHZ
Type APP Name BERLIN ARR Frequency 119.625 MHZ
Type ATIS Name ATIS Frequency 124.95 MHZ
Type DEP Name BERLIN DEP Frequency 120.625 MHZ
Type DIR Name BERLIN DIR Frequency 136.1 MHZ
Type GND Name GND Frequency 121.6 MHZ
Type INFO Name INFO Frequency 122.7 MHZ
Type TWR Name TWR Frequency 120.025 MHZ

 

AIRPORT NEAR NAVIGATION AIDS

Type DME Name Schonefeld Frequency 114400 KHZ
Type NDB Name Schonefeld Frequency 362 KHZ